Aviation Digital Data Service (ADDS)

Output produced by METARs form (0209 UTC 20 January 2022)
found at http://www.aviationweather.gov/metar/data/
 
METAR text: KDFW 200204Z 35026G35KT 10SM OVC030 04/M04 A3019 RMK AO2 PK WND 35035/0204 T00441039
Conditions at: KDFW (DALLAS/FT WORTH , TX, US) observed 0204 UTC 20 January 2022
Temperature: 4.4°C (40°F)
Dewpoint: -3.9°C (25°F) [RH = 55%]
Pressure (altimeter): 30.19 inches Hg (1022.4 mb)
Winds: from the N (350 degrees) at 30 MPH (26 knots; 13.4 m/s)
gusting to 40 MPH (35 knots; 18.0 m/s)
Visibility: 10 or more miles (16+ km)
Ceiling: 3000 feet AGL
Clouds: overcast cloud deck at 3000 feet AGL
Weather: no significant weather observed at this time

METAR text: KDFW 200153Z 35022KT 10SM OVC029 05/M03 A3019 RMK AO2 PK WND 33035/0130 SLP221 T00501033
Conditions at: KDFW (DALLAS/FT WORTH , TX, US) observed 0153 UTC 20 January 2022
Temperature: 5.0°C (41°F)
Dewpoint: -3.3°C (26°F) [RH = 55%]
Pressure (altimeter): 30.19 inches Hg (1022.4 mb)
[Sea-level pressure: 1022.1 mb]
Winds: from the N (350 degrees) at 25 MPH (22 knots; 11.3 m/s)
Visibility: 10 or more miles (16+ km)
Ceiling: 2900 feet AGL
Clouds: overcast cloud deck at 2900 feet AGL
Weather: no significant weather observed at this time

Forecast for: KDFW (DALLAS/FT WORTH , TX, US)
Text: KDFW 192343Z 2000/2106 36020G30KT P6SM OVC025
Forecast period: 0000 to 0300 UTC 20 January 2022
Forecast type: FROM: standard forecast or significant change
Winds: from the N (360 degrees) at 23 MPH (20 knots; 10.3 m/s)
gusting to 34 MPH (30 knots; 15.4 m/s)
Visibility: 6 or more miles (10+ km)
Ceiling: 2500 feet AGL
Clouds: overcast cloud deck at 2500 feet AGL
Weather: no significant weather forecast for this period
Text: FM200300 36025G35KT P6SM BKN035
Forecast period: 0300 to 1200 UTC 20 January 2022
Forecast type: FROM: standard forecast or significant change
Winds: from the N (360 degrees) at 29 MPH (25 knots; 12.9 m/s)
gusting to 40 MPH (35 knots; 18.0 m/s)
Visibility: 6 or more miles (10+ km)
Ceiling: 3500 feet AGL
Clouds: broken clouds at 3500 feet AGL
Weather: no significant weather forecast for this period
Text: FM201200 01018KT P6SM BKN060
Forecast period: 1200 UTC 20 January 2022 to 0600 UTC 21 January 2022
Forecast type: FROM: standard forecast or significant change
Winds: from the N (10 degrees) at 21 MPH (18 knots; 9.3 m/s)
Visibility: 6 or more miles (10+ km)
Ceiling: 6000 feet AGL
Clouds: broken clouds at 6000 feet AGL
Weather: no significant weather forecast for this period